createdAt,value
2018-08-03T00:01:01.138Z,8.03
2018-08-03T00:04:04.233Z,8.23
2018-08-03T00:07:07.654Z,9.00
2018-08-03T00:10:10.955Z,8.50
2018-08-03T00:16:23.782Z,9.17
2018-08-03T00:19:27.098Z,7.93
2018-08-03T00:22:30.411Z,8.73
2018-08-03T00:25:33.431Z,9.47
2018-08-03T00:28:36.582Z,9.07
2018-08-03T00:31:39.519Z,7.50
2018-08-03T00:34:42.881Z,8.27
2018-08-03T00:37:46.042Z,8.87
2018-08-03T00:40:49.271Z,9.57
2018-08-03T00:43:52.533Z,9.80
2018-08-03T00:46:55.858Z,8.80
2018-08-03T00:49:58.765Z,8.80
2018-08-03T00:53:02.058Z,8.80
2018-08-03T00:56:05.581Z,9.13
2018-08-03T00:59:08.842Z,8.30
2018-08-03T01:02:11.920Z,8.77
2018-08-03T01:05:14.905Z,9.17
2018-08-03T01:08:18.128Z,9.20
2018-08-03T01:11:21.337Z,8.87
2018-08-03T01:14:24.570Z,8.97
2018-08-03T01:17:27.897Z,7.90
2018-08-03T01:20:31.170Z,8.30
2018-08-03T01:23:34.494Z,8.53
2018-08-03T01:26:37.814Z,8.90
2018-08-03T01:29:41.118Z,9.53
2018-08-03T01:32:44.434Z,9.57
2018-08-03T01:35:47.789Z,9.20
2018-08-03T01:38:51.013Z,9.03
2018-08-03T01:41:54.265Z,10.53
2018-08-03T01:44:57.505Z,9.90
2018-08-03T01:48:00.822Z,9.37
2018-08-03T01:51:04.022Z,8.90
2018-08-03T01:54:07.286Z,10.13
2018-08-03T01:57:10.545Z,9.50
2018-08-03T02:03:49.170Z,9.80
2018-08-03T02:06:52.490Z,10.47
2018-08-03T02:09:55.466Z,10.40
2018-08-03T02:12:58.706Z,9.87
2018-08-03T02:16:01.898Z,10.53
2018-08-03T02:19:05.034Z,10.13
2018-08-03T02:22:08.326Z,8.87
2018-08-03T02:25:11.521Z,9.80
2018-08-03T02:28:14.821Z,31.77
2018-08-03T02:31:18.011Z,11.10
2018-08-03T02:34:21.205Z,10.63
2018-08-03T02:37:24.512Z,10.00
2018-08-03T02:40:27.523Z,13.57
2018-08-03T02:43:30.550Z,10.70
2018-08-03T02:46:33.882Z,11.90
2018-08-03T02:49:37.211Z,10.17
2018-08-03T02:52:40.459Z,9.77
2018-08-03T02:55:43.854Z,9.30
2018-08-03T02:58:47.054Z,10.00
2018-08-03T03:01:50.239Z,9.87
2018-08-03T03:04:53.422Z,10.13
2018-08-03T03:07:56.634Z,9.60
2018-08-03T03:10:59.927Z,10.50
2018-08-03T03:14:03.186Z,9.90
2018-08-03T03:17:06.531Z,10.30
2018-08-03T03:20:09.770Z,9.50
2018-08-03T03:23:12.983Z,10.03
2018-08-03T03:26:16.201Z,9.70
2018-08-03T03:29:19.482Z,9.93
2018-08-03T03:32:22.749Z,9.17
2018-08-03T03:35:26.049Z,9.57
2018-08-03T03:38:29.352Z,9.10
2018-08-03T03:41:32.695Z,10.70
2018-08-03T03:44:35.995Z,10.57
2018-08-03T03:47:39.245Z,10.33
2018-08-03T03:50:42.458Z,9.90
2018-08-03T03:53:45.866Z,8.93
2018-08-03T03:56:49.097Z,9.40
2018-08-03T03:59:52.045Z,9.90
2018-08-03T04:02:55.345Z,9.43
2018-08-03T04:05:58.706Z,11.43
2018-08-03T04:09:01.971Z,9.87
2018-08-03T04:12:05.412Z,9.63
2018-08-03T04:15:08.802Z,11.20
2018-08-03T04:18:15.885Z,9.97
2018-08-03T04:21:19.109Z,10.13
2018-08-03T04:24:22.396Z,9.37
2018-08-03T04:27:25.685Z,9.33
2018-08-03T04:30:28.898Z,10.33
2018-08-03T04:33:32.106Z,10.10
2018-08-03T04:36:35.448Z,9.87
2018-08-03T04:39:38.827Z,9.37
2018-08-03T04:42:41.793Z,9.03
2018-08-03T04:45:45.090Z,9.97
2018-08-03T04:48:48.358Z,9.17
2018-08-03T04:51:51.691Z,9.33
2018-08-03T04:54:54.936Z,9.00
2018-08-03T04:57:58.202Z,9.20
2018-08-03T05:01:01.171Z,9.50
2018-08-03T05:04:04.370Z,8.87
2018-08-03T05:07:07.767Z,9.10
2018-08-03T05:10:10.978Z,9.33
2018-08-03T05:13:14.559Z,9.00
2018-08-03T05:16:17.798Z,9.77
2018-08-03T05:19:21.042Z,9.07
2018-08-03T05:22:24.390Z,9.07
2018-08-03T05:25:27.659Z,9.20
2018-08-03T05:28:30.904Z,8.87
2018-08-03T05:31:34.110Z,8.83
2018-08-03T05:34:37.417Z,9.20
2018-08-03T05:37:40.634Z,8.83
2018-08-03T05:40:43.809Z,7.87
2018-08-03T05:43:47.061Z,6.83
2018-08-03T05:46:50.311Z,7.03
2018-08-03T05:49:53.493Z,6.30
2018-08-03T05:52:56.855Z,5.90
2018-08-03T05:56:00.101Z,5.60
2018-08-03T05:59:03.313Z,5.62
2018-08-03T06:02:06.641Z,5.72
2018-08-03T06:05:10.054Z,5.55
2018-08-03T06:08:13.274Z,5.90
2018-08-03T06:11:16.418Z,5.12
2018-08-03T06:14:19.578Z,5.42
2018-08-03T06:17:22.811Z,5.45
2018-08-03T06:20:26.070Z,5.62
2018-08-03T06:23:29.024Z,5.25
2018-08-03T06:26:32.206Z,5.08
2018-08-03T06:29:35.396Z,4.70
2018-08-03T06:32:39.042Z,4.83
2018-08-03T06:35:56.393Z,5.03
2018-08-03T06:38:59.645Z,4.75
2018-08-03T06:42:02.746Z,4.47
2018-08-03T06:45:06.101Z,4.53
2018-08-03T06:48:09.316Z,4.50
2018-08-03T06:51:12.527Z,4.62
2018-08-03T06:54:15.710Z,5.10
2018-08-03T06:57:18.918Z,4.03
2018-08-03T07:00:22.094Z,5.20
2018-08-03T07:03:25.259Z,4.40
2018-08-03T07:06:28.489Z,4.25
2018-08-03T07:09:31.670Z,4.53
2018-08-03T07:12:34.831Z,4.10
2018-08-03T07:15:38.227Z,4.42
2018-08-03T07:18:41.322Z,3.87
2018-08-03T07:21:44.426Z,3.95
2018-08-03T07:24:47.514Z,3.98
2018-08-03T07:27:50.585Z,4.00
2018-08-03T07:31:07.948Z,4.37
2018-08-03T07:34:11.032Z,4.28
2018-08-03T07:37:14.117Z,3.80
2018-08-03T07:40:17.368Z,4.45
2018-08-03T07:43:20.506Z,4.03
2018-08-03T07:46:23.715Z,4.55
2018-08-03T07:49:26.791Z,3.67
2018-08-03T07:52:29.883Z,5.05
2018-08-03T07:55:32.942Z,4.00
2018-08-03T07:58:35.793Z,3.80
2018-08-03T08:01:38.870Z,4.42
2018-08-03T08:04:41.937Z,4.08
2018-08-03T08:07:45.024Z,4.95
2018-08-03T08:10:48.077Z,3.58
2018-08-03T08:13:50.952Z,4.22
2018-08-03T08:16:54.140Z,4.03
2018-08-03T08:19:57.180Z,5.00
2018-08-03T08:23:00.313Z,3.70
2018-08-03T08:26:03.459Z,4.67
2018-08-03T08:29:06.478Z,11.78
2018-08-03T08:32:09.543Z,4.80
2018-08-03T08:35:12.598Z,8.08
2018-08-03T08:38:15.678Z,5.47
2018-08-03T08:41:18.742Z,4.37
2018-08-03T08:44:21.817Z,4.15
2018-08-03T08:47:24.906Z,4.37
2018-08-03T08:50:27.962Z,3.80
2018-08-03T08:53:31.042Z,4.50
2018-08-03T08:56:34.097Z,4.12
2018-08-03T08:59:37.221Z,4.08
2018-08-03T09:02:40.248Z,5.05
2018-08-03T09:05:43.318Z,5.17
2018-08-03T09:08:46.366Z,4.28
2018-08-03T09:11:49.421Z,4.70
2018-08-03T09:14:52.492Z,5.75
2018-08-03T09:17:55.550Z,4.30
2018-08-03T09:20:58.613Z,5.47
2018-08-03T09:24:01.673Z,4.62
2018-08-03T09:27:04.712Z,5.00
2018-08-03T09:30:08.765Z,4.50
2018-08-03T09:33:11.834Z,5.33
2018-08-03T09:36:14.901Z,4.35
2018-08-03T09:39:17.974Z,4.90
2018-08-03T09:42:21.134Z,5.20
2018-08-03T09:45:24.265Z,4.95
2018-08-03T09:48:27.397Z,4.97
2018-08-03T09:51:30.647Z,4.60
2018-08-03T09:54:33.951Z,4.67
2018-08-03T09:57:37.109Z,5.20
2018-08-03T10:00:45.610Z,5.47
2018-08-03T10:03:48.796Z,4.50
2018-08-03T10:06:52.006Z,4.73
2018-08-03T10:09:55.194Z,4.87
2018-08-03T10:12:58.392Z,4.63
2018-08-03T10:19:33.748Z,5.03
2018-08-03T10:22:37.315Z,4.97
2018-08-03T10:25:40.493Z,5.57
2018-08-03T10:28:43.658Z,5.40
2018-08-03T10:31:46.831Z,4.97
2018-08-03T10:34:50.047Z,5.17
2018-08-03T10:37:53.214Z,5.23
2018-08-03T10:40:56.454Z,7.43
2018-08-03T10:44:00.296Z,5.40
2018-08-03T10:47:03.452Z,6.13
2018-08-03T10:50:06.553Z,5.17
2018-08-03T10:53:09.735Z,5.43
2018-08-03T10:56:12.901Z,5.90
2018-08-03T10:59:16.029Z,5.43
2018-08-03T11:02:19.221Z,5.50
2018-08-03T11:05:22.719Z,6.70
2018-08-03T11:08:25.938Z,5.57
2018-08-03T11:11:29.118Z,5.47
2018-08-03T11:14:32.387Z,9.03
2018-08-03T11:17:36.392Z,5.87
2018-08-03T11:20:39.549Z,5.67
2018-08-03T11:23:42.807Z,6.20
2018-08-03T11:26:46.067Z,5.93
2018-08-03T11:29:49.310Z,5.53
2018-08-03T11:32:52.475Z,16.30
2018-08-03T11:35:55.513Z,7.63
2018-08-03T11:38:58.676Z,5.47
2018-08-03T11:42:01.881Z,6.30
2018-08-03T11:45:06.701Z,5.57
2018-08-03T11:48:09.851Z,5.83
2018-08-03T11:51:13.008Z,7.53
2018-08-03T11:54:16.213Z,9.33
2018-08-03T11:57:19.406Z,7.13
2018-08-03T12:00:22.585Z,5.87
2018-08-03T12:03:25.702Z,6.93
2018-08-03T12:06:28.860Z,19.00
2018-08-03T12:09:31.883Z,5.37
2018-08-03T12:12:35.000Z,5.70
2018-08-03T12:15:45.461Z,7.67
2018-08-03T12:18:48.537Z,6.60
2018-08-03T12:21:51.638Z,5.67
2018-08-03T12:24:55.813Z,5.43
2018-08-03T12:27:58.904Z,5.20
2018-08-03T12:31:01.986Z,6.33
2018-08-03T12:34:05.218Z,7.60
2018-08-03T12:37:08.376Z,5.53
2018-08-03T12:40:11.370Z,6.40
2018-08-03T12:43:14.482Z,5.37
2018-08-03T12:46:17.623Z,6.07
2018-08-03T12:49:20.882Z,6.13
2018-08-03T12:52:24.133Z,6.27
2018-08-03T12:55:27.274Z,6.60
2018-08-03T12:58:30.444Z,6.43
2018-08-03T13:01:33.742Z,5.93
2018-08-03T13:04:36.946Z,17.37
2018-08-03T13:07:40.337Z,7.70
2018-08-03T13:10:43.944Z,8.07
2018-08-03T13:13:47.145Z,6.47
2018-08-03T13:16:50.387Z,6.37
2018-08-03T13:19:53.811Z,7.57
2018-08-03T13:23:00.838Z,6.40
2018-08-03T13:26:04.078Z,6.90
2018-08-03T13:29:07.423Z,7.57
2018-08-03T13:32:11.027Z,7.43
2018-08-03T13:35:14.227Z,5.77
2018-08-03T13:38:17.393Z,5.87
2018-08-03T13:41:20.617Z,6.27
2018-08-03T13:44:23.862Z,6.10
2018-08-03T13:47:27.026Z,6.20
2018-08-03T13:50:30.158Z,5.87
2018-08-03T13:53:33.347Z,6.20
2018-08-03T13:56:36.548Z,6.20
2018-08-03T13:59:39.794Z,6.37
2018-08-03T14:02:43.459Z,6.60
2018-08-03T14:05:46.644Z,7.53
2018-08-03T14:08:50.253Z,5.57
2018-08-03T14:11:53.442Z,6.30
2018-08-03T14:14:56.750Z,6.90
2018-08-03T14:18:00.054Z,6.57
2018-08-03T14:21:03.254Z,5.83
2018-08-03T14:24:06.459Z,6.27
2018-08-03T14:27:09.634Z,6.20
2018-08-03T14:30:12.841Z,5.93
2018-08-03T14:33:16.020Z,6.30
2018-08-03T14:36:19.189Z,6.00
2018-08-03T14:39:22.334Z,6.03
2018-08-03T14:42:25.514Z,5.90
2018-08-03T14:45:28.750Z,6.00
2018-08-03T14:48:31.745Z,6.67
2018-08-03T14:51:34.952Z,8.90
2018-08-03T14:54:38.254Z,5.60
2018-08-03T14:57:41.497Z,7.73
2018-08-03T15:00:44.702Z,7.27
2018-08-03T15:03:47.930Z,6.90
2018-08-03T15:06:51.230Z,6.07
2018-08-03T15:09:54.482Z,7.37
2018-08-03T15:12:57.398Z,5.87
2018-08-03T15:16:00.685Z,6.47
2018-08-03T15:19:04.268Z,6.97
2018-08-03T15:22:07.455Z,6.33
2018-08-03T15:25:10.765Z,6.00
2018-08-03T15:28:13.741Z,6.23
2018-08-03T15:31:16.954Z,7.17
2018-08-03T15:34:20.170Z,5.90
2018-08-03T15:37:23.366Z,5.77
2018-08-03T15:40:26.738Z,7.10
2018-08-03T15:43:29.910Z,6.10
2018-08-03T15:46:33.226Z,5.93
2018-08-03T15:49:36.226Z,11.37
2018-08-03T15:52:39.583Z,6.63
2018-08-03T15:55:42.853Z,6.60
2018-08-03T15:58:46.069Z,6.63
2018-08-03T16:01:49.232Z,6.93
2018-08-03T16:04:52.527Z,8.93
2018-08-03T16:07:55.711Z,7.57
2018-08-03T16:10:58.985Z,6.63
2018-08-03T16:14:01.914Z,6.30
2018-08-03T16:17:05.149Z,6.67
2018-08-03T16:20:08.380Z,7.60
2018-08-03T16:23:11.518Z,8.53
2018-08-03T16:26:14.886Z,8.07
2018-08-03T16:29:18.066Z,5.70
2018-08-03T16:32:26.317Z,5.37
2018-08-03T16:35:29.455Z,5.83
2018-08-03T16:38:32.692Z,5.17
2018-08-03T16:41:35.899Z,6.30
2018-08-03T16:44:39.102Z,6.60
2018-08-03T16:47:42.321Z,6.30
2018-08-03T16:50:45.574Z,6.00
2018-08-03T16:53:48.875Z,7.13
2018-08-03T16:56:52.274Z,6.60
2018-08-03T16:59:55.482Z,5.83
2018-08-03T17:02:58.668Z,7.30
2018-08-03T17:06:01.975Z,5.63
2018-08-03T17:09:07.601Z,6.87
2018-08-03T17:12:10.959Z,5.80
2018-08-03T17:15:14.006Z,5.93
2018-08-03T17:18:17.251Z,5.63
2018-08-03T17:21:20.513Z,5.97
2018-08-03T17:24:23.773Z,5.03
2018-08-03T17:27:27.730Z,6.43
2018-08-03T17:30:30.739Z,5.60
2018-08-03T17:33:33.970Z,5.13
2018-08-03T17:36:37.281Z,7.40
2018-08-03T17:39:40.499Z,5.33
2018-08-03T17:42:43.725Z,5.37
2018-08-03T17:45:46.874Z,5.83
2018-08-03T17:48:50.082Z,5.80
2018-08-03T17:51:53.058Z,6.50
2018-08-03T17:54:56.384Z,21.60
2018-08-03T17:57:59.577Z,14.03
2018-08-03T18:01:02.563Z,5.50
2018-08-03T18:04:05.782Z,6.20
2018-08-03T18:07:08.857Z,5.40
2018-08-03T18:10:11.922Z,5.57
2018-08-03T18:13:15.010Z,5.67
2018-08-03T18:16:18.076Z,5.50
2018-08-03T18:19:21.165Z,5.40
2018-08-03T18:22:24.230Z,5.73
2018-08-03T18:25:27.309Z,5.27
2018-08-03T18:28:30.167Z,6.07
2018-08-03T18:31:39.659Z,5.00
2018-08-03T18:34:48.274Z,9.07
2018-08-03T18:37:52.758Z,6.30
2018-08-03T18:40:56.891Z,7.40
2018-08-03T18:44:00.806Z,12.23
2018-08-03T18:47:03.858Z,6.43
2018-08-03T18:50:06.937Z,5.37
2018-08-03T18:53:10.049Z,15.60
2018-08-03T18:56:13.175Z,8.53
2018-08-03T18:59:16.282Z,7.73
2018-08-03T19:02:20.249Z,6.70
2018-08-03T19:05:23.310Z,6.47
2018-08-03T19:08:26.401Z,6.37
2018-08-03T19:11:29.481Z,6.53
2018-08-03T19:14:32.560Z,6.47
2018-08-03T19:17:35.665Z,4.70
2018-08-03T19:20:38.741Z,6.10
2018-08-03T19:23:41.857Z,5.63
2018-08-03T19:26:44.935Z,5.97
2018-08-03T19:29:48.093Z,5.47
2018-08-03T19:32:50.964Z,5.90
2018-08-03T19:35:54.073Z,6.70
2018-08-03T19:38:57.149Z,6.60
2018-08-03T19:42:00.259Z,6.87
2018-08-03T19:45:03.336Z,7.00
2018-08-03T19:48:06.398Z,7.17
2018-08-03T19:51:09.492Z,7.87
2018-08-03T19:54:12.569Z,8.73
2018-08-03T19:57:15.649Z,9.67
2018-08-03T20:00:18.692Z,9.43
2018-08-03T20:03:21.557Z,7.93
2018-08-03T20:06:24.637Z,8.87
2018-08-03T20:09:27.728Z,9.63
2018-08-03T20:12:30.927Z,11.47
2018-08-03T20:15:34.880Z,10.20
2018-08-03T20:18:37.922Z,9.73
2018-08-03T20:21:41.001Z,8.90
2018-08-03T20:24:44.197Z,9.97
2018-08-03T20:27:47.322Z,9.67
2018-08-03T20:30:50.398Z,12.53
2018-08-03T20:37:25.524Z,9.63
2018-08-03T20:40:38.282Z,8.77
2018-08-03T20:43:43.457Z,9.20
2018-08-03T20:47:06.672Z,8.80
2018-08-03T20:53:40.054Z,9.87
2018-08-03T20:56:45.170Z,9.90
2018-08-03T20:59:48.056Z,9.23
2018-08-03T21:02:51.128Z,11.70
2018-08-03T21:05:56.309Z,9.03
2018-08-03T21:09:06.268Z,8.00
2018-08-03T21:12:09.447Z,9.40
2018-08-03T21:15:12.712Z,10.87
2018-08-03T21:18:16.011Z,10.17
2018-08-03T21:21:19.305Z,11.17
2018-08-03T21:24:40.381Z,11.53
2018-08-03T21:27:43.639Z,11.03
2018-08-03T21:34:08.829Z,11.23
2018-08-03T21:37:12.019Z,11.20
2018-08-03T21:43:50.487Z,10.37
2018-08-03T21:47:03.786Z,9.97
2018-08-03T21:50:10.875Z,9.90
2018-08-03T21:53:14.082Z,10.53
2018-08-03T21:56:30.390Z,10.80
2018-08-03T21:59:33.567Z,11.67
2018-08-03T22:02:43.849Z,11.80
2018-08-03T22:05:46.830Z,11.57
2018-08-03T22:08:50.058Z,10.67
2018-08-03T22:11:53.092Z,10.37
2018-08-03T22:14:56.306Z,10.47
2018-08-03T22:17:59.289Z,9.93
2018-08-03T22:21:02.457Z,10.43
2018-08-03T22:24:05.881Z,10.13
2018-08-03T22:27:21.594Z,12.67
2018-08-03T22:30:24.890Z,10.63
2018-08-03T22:33:27.952Z,10.33
2018-08-03T22:36:31.291Z,10.63
2018-08-03T22:39:34.552Z,9.97
2018-08-03T22:42:37.788Z,10.90
2018-08-03T22:45:41.091Z,11.13
2018-08-03T22:48:44.272Z,10.00
2018-08-03T22:51:47.597Z,9.70
2018-08-03T22:54:50.827Z,11.87
2018-08-03T22:57:54.031Z,9.57
2018-08-03T23:00:57.305Z,10.10
2018-08-03T23:04:00.422Z,9.80
2018-08-03T23:07:03.416Z,12.30
2018-08-03T23:10:06.549Z,11.57
2018-08-03T23:13:09.818Z,10.03
2018-08-03T23:16:13.177Z,10.60
2018-08-03T23:19:16.474Z,10.40
2018-08-03T23:22:19.648Z,10.97
2018-08-03T23:25:22.883Z,10.27
2018-08-03T23:28:26.142Z,9.87
2018-08-03T23:31:29.318Z,10.20
2018-08-03T23:34:32.553Z,10.23
2018-08-03T23:37:35.805Z,10.97
2018-08-03T23:40:39.078Z,10.20
2018-08-03T23:43:42.281Z,11.73
2018-08-03T23:46:45.487Z,11.10
2018-08-03T23:49:48.690Z,10.33
2018-08-03T23:52:51.850Z,11.20
2018-08-03T23:55:55.202Z,9.87
2018-08-03T23:58:58.538Z,11.70
